Time;durP1;ratioP1;P1;durP2;ratioP2;P2;SDS_P1;SDS_P2;PMS_P1;PMS_P2;Temp;Humidity;BMP_temperature;BMP_pressure;BME280_temperature;BME280_humidity;BME280_pressure;Samples;Min_cycle;Max_cycle;Signal;HPM_P1;HPM_P2
2021/01/27 00:01:13;;;;;;;47.58;28.92;;;2.60;99.90;;;;;;5090900;28;20104;-78
2021/01/27 00:03:39;;;;;;;41.78;26.63;;;2.60;99.90;;;;;;5092943;28;20027;-78
2021/01/27 00:06:05;;;;;;;39.50;24.38;;;2.60;99.90;;;;;;5093283;28;20024;-78
2021/01/27 00:08:31;;;;;;;49.65;26.92;;;2.60;99.90;;;;;;5094540;28;20028;-79
2021/01/27 00:10:57;;;;;;;42.60;27.40;;;2.60;99.90;;;;;;5093229;28;20550;-79
2021/01/27 00:13:22;;;;;;;45.90;27.67;;;2.60;99.90;;;;;;5094672;28;20149;-79
2021/01/27 00:15:49;;;;;;;42.63;26.63;;;2.60;99.90;;;;;;5094321;28;20032;-79
2021/01/27 00:18:17;;;;;;;42.42;26.50;;;2.60;99.90;;;;;;5094127;28;20036;-79
2021/01/27 00:20:43;;;;;;;42.10;25.00;;;2.60;99.90;;;;;;5094126;28;20031;-79
2021/01/27 00:23:09;;;;;;;42.20;26.05;;;2.60;99.90;;;;;;5094915;28;20024;-79
2021/01/27 00:25:37;;;;;;;39.83;26.23;;;2.60;99.90;;;;;;5094791;28;20073;-79
2021/01/27 00:28:04;;;;;;;63.65;27.65;;;2.60;99.90;;;;;;5094727;28;20019;-79
2021/01/27 00:30:33;;;;;;;39.45;25.63;;;2.60;99.90;;;;;;5094794;28;20157;-79
2021/01/27 00:33:00;;;;;;;40.45;26.10;;;2.60;99.90;;;;;;5094746;28;20378;-79
2021/01/27 00:35:31;;;;;;;40.67;24.38;;;2.60;99.90;;;;;;5094741;28;20020;-79
2021/01/27 00:37:59;;;;;;;38.22;25.23;;;2.60;99.90;;;;;;5094770;28;20103;-79
2021/01/27 00:40:25;;;;;;;47.70;27.58;;;2.60;99.90;;;;;;5094529;28;20026;-79
2021/01/27 00:42:51;;;;;;;38.58;24.20;;;2.50;99.90;;;;;;5094723;28;20036;-79
2021/01/27 00:45:17;;;;;;;38.30;24.23;;;2.50;99.90;;;;;;5094557;28;20389;-80
2021/01/27 00:47:43;;;;;;;39.83;25.08;;;2.60;99.90;;;;;;5094404;28;20025;-79
2021/01/27 00:50:11;;;;;;;42.53;24.77;;;2.50;99.90;;;;;;5094504;28;20035;-80
2021/01/27 00:52:37;;;;;;;39.47;25.00;;;2.60;99.90;;;;;;5093166;28;20085;-79
2021/01/27 00:55:14;;;;;;;60.38;26.98;;;2.60;99.90;;;;;;5094361;28;20035;-79
2021/01/27 00:57:40;;;;;;;42.47;25.33;;;2.60;99.90;;;;;;5094930;28;20036;-79
2021/01/27 01:00:16;;;;;;;44.75;27.73;;;2.60;99.90;;;;;;5094584;28;20099;-80
2021/01/27 01:02:41;;;;;;;74.45;29.20;;;2.60;99.90;;;;;;5094733;28;20024;-79
2021/01/27 01:05:12;;;;;;;36.10;24.48;;;2.60;99.90;;;;;;5094314;28;20373;-80
2021/01/27 01:07:37;;;;;;;;;;;2.60;99.90;;;;;;5094920;28;20024;-79
2021/01/27 01:10:06;;;;;;;36.58;24.40;;;2.60;99.90;;;;;;5093173;28;20523;-79
2021/01/27 01:12:32;;;;;;;38.67;23.02;;;2.60;99.90;;;;;;5092985;28;20028;-79
2021/01/27 01:14:58;;;;;;;38.75;25.05;;;2.60;99.90;;;;;;5093537;28;20059;-79
2021/01/27 01:17:24;;;;;;;38.03;23.25;;;2.60;99.90;;;;;;5093972;28;20028;-79
2021/01/27 01:19:50;;;;;;;36.60;23.90;;;2.60;99.90;;;;;;5092681;28;20085;-79
2021/01/27 01:22:15;;;;;;;40.92;25.77;;;2.60;99.90;;;;;;5093809;28;20040;-79
2021/01/27 01:24:41;;;;;;;40.97;26.52;;;2.60;99.90;;;;;;5093447;28;20028;-79
2021/01/27 01:27:07;;;;;;;47.28;28.33;;;2.60;99.90;;;;;;5093876;28;20155;-79
2021/01/27 01:29:32;;;;;;;43.05;27.55;;;2.60;99.90;;;;;;5093762;28;20024;-79
2021/01/27 01:31:58;;;;;;;40.63;26.20;;;2.60;99.90;;;;;;5092416;28;20111;-79
2021/01/27 01:34:24;;;;;;;106.68;29.05;;;2.60;99.90;;;;;;5092393;28;20031;-79
2021/01/27 01:36:50;;;;;;;43.30;27.35;;;2.60;99.90;;;;;;5093326;28;20028;-79
2021/01/27 01:39:16;;;;;;;38.15;25.83;;;2.60;99.90;;;;;;5093179;28;20039;-79
2021/01/27 01:41:41;;;;;;;40.92;24.75;;;2.60;99.90;;;;;;5093178;28;20028;-79
2021/01/27 01:44:07;;;;;;;41.03;25.02;;;2.60;99.90;;;;;;5091734;28;20055;-79
2021/01/27 01:46:33;;;;;;;39.47;25.25;;;2.60;99.90;;;;;;5093245;28;20028;-79
2021/01/27 01:49:02;;;;;;;43.75;25.67;;;2.50;99.90;;;;;;5093013;28;20016;-79
2021/01/27 01:51:32;;;;;;;38.40;25.50;;;2.60;99.90;;;;;;5092827;28;20069;-78
2021/01/27 01:54:26;;;;;;;40.90;25.40;;;2.50;99.90;;;;;;5091825;28;20027;-79
2021/01/27 01:56:56;;;;;;;35.78;23.17;;;2.50;99.90;;;;;;5092972;28;20047;-78
2021/01/27 01:59:22;;;;;;;39.53;23.87;;;2.50;99.90;;;;;;5092806;28;20016;-79
2021/01/27 02:01:52;;;;;;;34.90;22.85;;;2.50;99.90;;;;;;5093038;28;20020;-79
2021/01/27 02:04:18;;;;;;;67.60;25.35;;;2.50;99.90;;;;;;5093686;28;20032;-80
2021/01/27 02:06:44;;;;;;;64.15;26.10;;;2.50;99.90;;;;;;5093465;28;20024;-78
2021/01/27 02:09:10;;;;;;;69.85;27.08;;;2.60;99.90;;;;;;5092615;28;20374;-78
2021/01/27 02:11:51;;;;;;;48.17;27.45;;;2.60;99.90;;;;;;5092822;28;20111;-79
2021/01/27 02:14:31;;;;;;;;;;;2.50;99.90;;;;;;5093095;28;20095;-79
2021/01/27 02:17:37;;;;;;;77.65;27.58;;;2.50;99.90;;;;;;5093000;28;20355;-78
2021/01/27 02:20:40;;;;;;;46.22;28.13;;;2.40;99.90;;;;;;5077282;28;20036;-79
2021/01/27 02:23:43;;;;;;;48.53;29.45;;;2.40;99.90;;;;;;5091186;28;20382;-79
2021/01/27 02:26:38;;;;;;;47.70;28.75;;;2.40;99.90;;;;;;5090333;28;20082;-79
2021/01/27 02:29:19;;;;;;;45.63;27.45;;;2.30;99.90;;;;;;5091175;28;20024;-79
2021/01/27 02:32:06;;;;;;;46.15;28.52;;;2.30;99.90;;;;;;5092227;28;20027;-79
2021/01/27 02:35:10;;;;;;;50.45;29.10;;;2.30;99.90;;;;;;5091602;28;20487;-80
2021/01/27 02:38:19;;;;;;;46.78;26.70;;;2.30;99.90;;;;;;5092704;28;20486;-80
2021/01/27 02:40:51;;;;;;;43.08;25.60;;;2.30;99.90;;;;;;5092360;28;20023;-78
2021/01/27 02:43:21;;;;;;;39.67;24.75;;;2.30;99.90;;;;;;5092055;28;20020;-78
2021/01/27 02:46:00;;;;;;;43.47;25.17;;;2.30;99.90;;;;;;5092043;28;20027;-79
2021/01/27 02:49:01;;;;;;;40.17;23.42;;;2.30;99.90;;;;;;5090771;28;20493;-78
2021/01/27 02:51:45;;;;;;;44.97;26.27;;;2.30;99.90;;;;;;5066081;28;20036;-78
2021/01/27 02:54:24;;;;;;;37.22;24.45;;;2.40;99.90;;;;;;5090886;28;20098;-79
2021/01/27 02:57:30;;;;;;;41.20;25.35;;;2.30;99.90;;;;;;5091894;28;20027;-78
2021/01/27 03:00:09;;;;;;;41.75;24.08;;;2.30;99.90;;;;;;5091806;28;20474;-78
2021/01/27 03:02:43;;;;;;;36.67;24.45;;;2.30;99.90;;;;;;5090515;28;20355;-78
2021/01/27 03:05:41;;;;;;;36.85;24.25;;;2.30;99.90;;;;;;5091856;28;20020;-78
2021/01/27 03:08:21;;;;;;;42.97;27.17;;;2.30;99.90;;;;;;5090902;28;20020;-79
2021/01/27 03:11:08;;;;;;;35.20;23.42;;;2.30;99.90;;;;;;5092241;28;20099;-79
2021/01/27 03:13:46;;;;;;;36.10;25.05;;;2.30;99.90;;;;;;5092156;28;20038;-79
2021/01/27 03:16:17;;;;;;;42.60;25.73;;;2.30;99.90;;;;;;5092201;28;20032;-79
2021/01/27 03:18:52;;;;;;;37.67;24.17;;;2.30;99.90;;;;;;5091981;28;20100;-79
2021/01/27 03:21:23;;;;;;;35.22;22.27;;;2.30;99.90;;;;;;5092186;28;20811;-79
2021/01/27 03:23:53;;;;;;;33.35;22.27;;;2.30;99.90;;;;;;5090734;28;20032;-79
2021/01/27 03:26:31;;;;;;;31.58;21.80;;;2.30;99.90;;;;;;5091717;28;20032;-79
2021/01/27 03:28:59;;;;;;;35.50;21.23;;;2.40;99.90;;;;;;5091778;28;20024;-79
2021/01/27 03:31:25;;;;;;;29.80;18.98;;;2.40;99.90;;;;;;5090167;28;20383;-79
2021/01/27 03:34:00;;;;;;;31.15;20.67;;;2.40;99.90;;;;;;5091615;28;20025;-79
2021/01/27 03:36:33;;;;;;;36.70;22.20;;;2.40;99.90;;;;;;5091622;28;20020;-78
2021/01/27 03:39:01;;;;;;;32.95;22.00;;;2.40;99.90;;;;;;5095448;28;20103;-79
2021/01/27 03:41:43;;;;;;;29.55;20.05;;;2.40;99.90;;;;;;5094415;28;20027;-79
2021/01/27 03:44:15;;;;;;;37.25;21.50;;;2.40;99.90;;;;;;5094275;28;20032;-78
2021/01/27 03:47:00;;;;;;;35.58;22.83;;;2.40;99.90;;;;;;5094262;28;20107;-79
2021/01/27 03:49:58;;;;;;;33.33;21.67;;;2.30;99.90;;;;;;5095733;28;20020;-79
2021/01/27 03:52:40;;;;;;;38.45;24.52;;;2.30;99.90;;;;;;5095932;28;20028;-80
2021/01/27 03:55:29;;;;;;;34.60;24.58;;;2.30;99.90;;;;;;5095964;28;20108;-79
2021/01/27 03:58:03;;;;;;;34.72;21.58;;;2.30;99.90;;;;;;5083726;28;20149;-79
2021/01/27 04:00:31;;;;;;;35.20;21.67;;;2.30;99.90;;;;;;5095827;28;20069;-80
2021/01/27 04:03:16;;;;;;;37.72;21.65;;;2.40;99.90;;;;;;5095163;28;20028;-80
2021/01/27 04:05:42;;;;;;;30.30;20.35;;;2.40;99.90;;;;;;5096295;28;20039;-80
2021/01/27 04:08:08;;;;;;;31.23;20.30;;;2.30;99.90;;;;;;5096227;28;20031;-79
2021/01/27 04:10:35;;;;;;;32.90;21.33;;;2.40;99.90;;;;;;5095977;28;20024;-80
2021/01/27 04:13:01;;;;;;;33.15;20.42;;;2.40;99.90;;;;;;5096187;28;20033;-79
2021/01/27 04:15:27;;;;;;;29.13;18.35;;;2.30;99.90;;;;;;5095618;28;20105;-79
2021/01/27 04:17:53;;;;;;;30.42;18.83;;;2.30;99.90;;;;;;5094379;28;20428;-79
2021/01/27 04:20:20;;;;;;;32.60;19.08;;;2.30;99.90;;;;;;5095343;28;20479;-79
2021/01/27 04:22:46;;;;;;;26.98;19.15;;;2.40;99.90;;;;;;5095984;28;20111;-79
2021/01/27 04:25:14;;;;;;;30.90;19.77;;;2.30;99.90;;;;;;5094669;28;20032;-79
2021/01/27 04:27:40;;;;;;;34.22;21.15;;;2.40;99.90;;;;;;5095814;28;20020;-80
2021/01/27 04:30:07;;;;;;;40.83;23.90;;;2.40;99.90;;;;;;5094451;28;20450;-79
2021/01/27 04:32:33;;;;;;;27.67;18.15;;;2.30;99.90;;;;;;5095518;28;20024;-80
2021/01/27 04:34:58;;;;;;;26.48;18.05;;;2.30;99.90;;;;;;5096029;28;20035;-80
2021/01/27 04:37:24;;;;;;;30.42;19.55;;;2.30;99.90;;;;;;5095730;28;20020;-80
2021/01/27 04:39:50;;;;;;;140.85;27.00;;;2.30;99.90;;;;;;5094137;28;20020;-80
2021/01/27 04:42:21;;;;;;;27.88;17.50;;;2.40;99.90;;;;;;5095468;28;20440;-79
2021/01/27 04:44:47;;;;;;;32.75;19.42;;;2.30;99.90;;;;;;5095002;28;20016;-79
2021/01/27 04:47:31;;;;;;;32.28;19.55;;;2.30;99.90;;;;;;5094961;28;20378;-79
2021/01/27 04:50:02;;;;;;;28.25;18.33;;;2.40;99.90;;;;;;5092834;28;20466;-79
2021/01/27 04:53:01;;;;;;;25.02;16.73;;;2.40;99.90;;;;;;5094855;28;20028;-80
2021/01/27 04:55:45;;;;;;;30.27;18.70;;;2.30;99.90;;;;;;5095240;28;20076;-80
2021/01/27 04:58:31;;;;;;;30.45;19.15;;;2.30;99.90;;;;;;5094822;28;20028;-80
2021/01/27 05:01:35;;;;;;;40.17;19.45;;;2.30;99.90;;;;;;5093089;28;20110;-79
2021/01/27 05:04:10;;;;;;;28.00;18.27;;;2.30;99.90;;;;;;5092634;28;20031;-80
2021/01/27 05:06:41;;;;;;;42.83;20.10;;;2.30;99.90;;;;;;5093017;28;20028;-80
2021/01/27 05:09:41;;;;;;;37.45;23.42;;;2.30;99.90;;;;;;5093345;28;20024;-80
2021/01/27 05:12:09;;;;;;;33.88;19.52;;;2.30;99.90;;;;;;5093149;28;20024;-80
2021/01/27 05:14:35;;;;;;;31.63;19.55;;;2.30;99.90;;;;;;5094693;28;20095;-80
2021/01/27 05:17:10;;;;;;;174.27;28.80;;;2.30;99.90;;;;;;5094716;28;20040;-79
2021/01/27 05:19:37;;;;;;;32.80;20.33;;;2.30;99.90;;;;;;5093828;28;20762;-79
2021/01/27 05:22:05;;;;;;;29.55;18.48;;;2.30;99.90;;;;;;5093932;28;20085;-79
2021/01/27 05:24:30;;;;;;;31.98;20.92;;;2.30;99.90;;;;;;5094196;28;20016;-79
2021/01/27 05:27:03;;;;;;;33.67;18.67;;;2.30;99.90;;;;;;5093871;28;20027;-79
2021/01/27 05:29:40;;;;;;;36.42;19.20;;;2.30;99.90;;;;;;5093432;28;20020;-78
2021/01/27 05:32:16;;;;;;;32.03;17.88;;;2.30;99.90;;;;;;5093174;28;20091;-78
2021/01/27 05:34:43;;;;;;;36.33;17.70;;;2.30;99.90;;;;;;5093591;28;20110;-79
2021/01/27 05:37:30;;;;;;;28.83;17.60;;;2.30;99.90;;;;;;5093545;28;20066;-79
2021/01/27 05:40:16;;;;;;;31.75;19.48;;;2.30;99.90;;;;;;5092236;28;20051;-79
2021/01/27 05:42:43;;;;;;;29.55;18.90;;;2.30;99.90;;;;;;5093611;28;20035;-79
2021/01/27 05:45:33;;;;;;;31.88;20.65;;;2.30;99.90;;;;;;5092134;28;20847;-79
2021/01/27 05:48:14;;;;;;;;;;;2.30;99.90;;;;;;5092414;28;20069;-79
2021/01/27 05:50:42;;;;;;;31.10;19.77;;;2.30;99.90;;;;;;5093246;28;19904;-79
2021/01/27 05:53:22;;;;;;;33.08;20.42;;;2.30;99.90;;;;;;5093259;28;20091;-79
2021/01/27 05:56:19;;;;;;;31.92;21.65;;;2.30;99.90;;;;;;5093631;28;20493;-80
2021/01/27 05:58:54;;;;;;;35.08;23.13;;;2.30;99.90;;;;;;5085094;28;20121;-79
2021/01/27 06:01:26;;;;;;;36.10;21.17;;;2.30;99.90;;;;;;5093554;28;20534;-79
2021/01/27 06:03:59;;;;;;;33.00;21.33;;;2.30;99.90;;;;;;5093115;28;20036;-78
2021/01/27 06:06:29;;;;;;;34.00;20.13;;;2.30;99.90;;;;;;5091560;28;20077;-79
2021/01/27 06:08:57;;;;;;;36.57;20.17;;;2.40;99.90;;;;;;5092094;28;20483;-79
2021/01/27 06:11:23;;;;;;;33.65;20.83;;;2.30;99.90;;;;;;5091318;28;20298;-78
2021/01/27 06:13:51;;;;;;;59.08;25.92;;;2.30;99.90;;;;;;5092512;28;20398;-78
2021/01/27 06:16:23;;;;;;;41.45;22.85;;;2.30;99.90;;;;;;5092694;28;20060;-78
2021/01/27 06:18:49;;;;;;;33.45;20.90;;;2.30;99.90;;;;;;5092658;28;20112;-78
2021/01/27 06:21:33;;;;;;;70.75;25.13;;;2.30;99.90;;;;;;5092884;28;20030;-78
2021/01/27 06:24:36;;;;;;;48.58;27.42;;;2.20;99.90;;;;;;5091671;28;20059;-79
2021/01/27 06:27:27;;;;;;;44.42;24.75;;;2.30;99.90;;;;;;5092526;28;20024;-78
2021/01/27 06:30:01;;;;;;;;;;;2.30;99.90;;;;;;5092798;28;20035;-78
2021/01/27 06:32:36;;;;;;;38.90;22.80;;;2.20;99.90;;;;;;5092074;28;19914;-78
2021/01/27 06:35:09;;;;;;;45.10;23.42;;;2.20;99.90;;;;;;5092311;28;20466;-79
2021/01/27 06:37:59;;;;;;;32.95;21.05;;;2.20;99.90;;;;;;5091976;28;20035;-78
2021/01/27 06:40:31;;;;;;;44.72;26.13;;;2.20;99.90;;;;;;5091754;28;20382;-77
2021/01/27 06:43:06;;;;;;;40.15;25.08;;;2.20;99.90;;;;;;5091874;28;20047;-77
2021/01/27 06:46:04;;;;;;;56.85;30.48;;;2.20;99.90;;;;;;5091151;28;20451;-77
2021/01/27 06:48:41;;;;;;;63.20;33.10;;;2.20;99.90;;;;;;5091134;28;20024;-78
2021/01/27 06:51:30;;;;;;;73.78;39.65;;;2.20;99.90;;;;;;5091525;28;20016;-78
2021/01/27 06:54:19;;;;;;;99.50;47.42;;;2.10;99.90;;;;;;5091429;28;20012;-77
2021/01/27 06:57:14;;;;;;;94.40;47.95;;;2.10;99.90;;;;;;5078986;28;20458;-77
2021/01/27 07:00:01;;;;;;;79.13;41.15;;;2.10;99.90;;;;;;5089893;28;20119;-78
2021/01/27 07:02:45;;;;;;;120.05;41.25;;;2.10;99.90;;;;;;5091427;28;20354;-78
2021/01/27 07:05:32;;;;;;;65.82;35.78;;;2.00;99.90;;;;;;5090790;28;20637;-78
2021/01/27 07:08:09;;;;;;;71.95;37.58;;;2.00;99.90;;;;;;5089360;28;20024;-77
2021/01/27 07:11:03;;;;;;;63.78;32.33;;;2.00;99.90;;;;;;5091523;28;20095;-78
2021/01/27 07:13:57;;;;;;;39.20;25.48;;;2.00;99.90;;;;;;5091167;28;20494;-77
2021/01/27 07:16:48;;;;;;;47.20;28.27;;;1.90;99.90;;;;;;5080401;28;20082;-77
2021/01/27 07:19:32;;;;;;;;;;;1.80;99.90;;;;;;5092376;28;20489;-79
2021/01/27 07:22:10;;;;;;;53.15;31.23;;;1.80;99.90;;;;;;5091242;28;20390;-79
2021/01/27 07:24:45;;;;;;;47.00;27.17;;;1.80;99.90;;;;;;5092123;28;20036;-79
2021/01/27 07:27:18;;;;;;;45.55;29.08;;;1.80;99.90;;;;;;5091009;28;20493;-79
2021/01/27 07:30:03;;;;;;;61.10;34.00;;;1.80;99.90;;;;;;5090917;28;20028;-79
2021/01/27 07:32:50;;;;;;;92.65;50.63;;;1.80;99.90;;;;;;5092359;28;20095;-80
2021/01/27 07:35:31;;;;;;;51.15;30.27;;;1.80;99.90;;;;;;5091607;28;20463;-79
2021/01/27 07:38:18;;;;;;;48.20;30.23;;;1.90;99.90;;;;;;5090503;28;20039;-78
2021/01/27 07:40:53;;;;;;;45.13;23.40;;;1.90;99.90;;;;;;5091494;28;20024;-78
2021/01/27 07:43:29;;;;;;;35.20;22.38;;;2.00;99.90;;;;;;5089559;28;20031;-78
2021/01/27 07:45:56;;;;;;;34.60;21.20;;;2.00;99.90;;;;;;5090889;28;20484;-77
2021/01/27 07:48:29;;;;;;;31.67;19.88;;;2.00;99.90;;;;;;5089670;28;20056;-77
2021/01/27 07:51:11;;;;;;;38.10;23.20;;;2.00;99.90;;;;;;5090927;28;20032;-77
2021/01/27 07:53:40;;;;;;;43.25;27.23;;;2.00;99.90;;;;;;5091015;28;20020;-78
2021/01/27 07:56:15;;;;;;;38.38;25.95;;;2.10;99.90;;;;;;5091000;28;20024;-78
2021/01/27 07:59:08;;;;;;;31.33;20.50;;;2.10;99.90;;;;;;5090902;28;20058;-77
2021/01/27 08:01:56;;;;;;;50.33;30.75;;;2.10;99.90;;;;;;5076782;28;20068;-78
2021/01/27 08:04:43;;;;;;;43.25;26.27;;;2.10;99.90;;;;;;5090902;28;20020;-77
2021/01/27 08:07:32;;;;;;;53.08;30.58;;;2.20;99.90;;;;;;5089342;28;20028;-77
2021/01/27 08:10:11;;;;;;;66.80;39.67;;;2.20;99.90;;;;;;5089751;28;20020;-78
2021/01/27 08:12:55;;;;;;;43.85;27.92;;;2.20;99.90;;;;;;5090894;28;20024;-77
2021/01/27 08:15:24;;;;;;;48.15;29.13;;;2.30;99.90;;;;;;5090373;28;20116;-77
2021/01/27 08:17:55;;;;;;;35.47;22.90;;;2.30;99.90;;;;;;5090653;28;20032;-77
2021/01/27 08:20:34;;;;;;;37.63;23.50;;;2.30;99.90;;;;;;5090626;28;20058;-78
2021/01/27 08:23:07;;;;;;;37.92;23.63;;;2.30;99.90;;;;;;5089439;28;20735;-78
2021/01/27 08:25:51;;;;;;;34.45;23.55;;;2.30;99.90;;;;;;5094132;28;20048;-78
2021/01/27 08:28:37;;;;;;;42.83;27.55;;;2.30;99.90;;;;;;5093053;28;20020;-77
2021/01/27 08:31:12;;;;;;;44.03;27.65;;;2.40;99.90;;;;;;5093207;28;20791;-78
2021/01/27 08:33:47;;;;;;;60.53;35.83;;;2.40;99.90;;;;;;5094087;28;20044;-77
2021/01/27 08:36:36;;;;;;;50.60;30.48;;;2.40;99.90;;;;;;5094174;28;20471;-77
2021/01/27 08:39:09;;;;;;;38.08;25.15;;;2.40;99.90;;;;;;5056508;28;20111;-77
2021/01/27 08:41:58;;;;;;;43.40;26.45;;;2.50;99.90;;;;;;5094818;28;20024;-80
2021/01/27 08:44:24;;;;;;;36.83;22.42;;;2.50;99.90;;;;;;5092897;28;20485;-78
2021/01/27 08:47:16;;;;;;;38.25;25.88;;;2.50;99.90;;;;;;5094243;28;20020;-78
2021/01/27 08:49:44;;;;;;;46.38;30.00;;;2.50;99.90;;;;;;5094442;28;20077;-78
2021/01/27 08:52:10;;;;;;;43.10;26.63;;;2.60;99.90;;;;;;5092907;28;20017;-78
2021/01/27 08:54:39;;;;;;;42.25;25.15;;;2.60;99.90;;;;;;5093974;28;20080;-78
2021/01/27 08:57:35;;;;;;;68.85;33.53;;;2.60;99.90;;;;;;5094247;28;20028;-77
2021/01/27 09:00:08;;;;;;;58.47;34.10;;;2.70;99.90;;;;;;5092393;28;20081;-78
2021/01/27 09:03:00;;;;;;;50.80;29.35;;;2.70;99.90;;;;;;5093824;28;20550;-78
2021/01/27 09:05:26;;;;;;;65.00;35.30;;;2.70;99.90;;;;;;5079413;28;20036;-78
2021/01/27 09:07:56;;;;;;;53.33;30.98;;;2.70;99.90;;;;;;5094063;28;20023;-80
2021/01/27 09:10:42;;;;;;;;;;;2.70;99.90;;;;;;5092704;28;20016;-78
2021/01/27 09:13:35;;;;;;;40.53;25.48;;;2.80;99.90;;;;;;5093471;28;20400;-78
2021/01/27 09:16:04;;;;;;;76.80;36.78;;;2.80;99.90;;;;;;5093506;28;20071;-76
2021/01/27 09:18:31;;;;;;;41.17;24.20;;;3.10;99.90;;;;;;5093115;28;20360;-77
2021/01/27 09:21:18;;;;;;;77.40;42.83;;;3.00;99.90;;;;;;5093115;28;20031;-77
2021/01/27 09:23:46;;;;;;;40.00;27.13;;;2.90;99.90;;;;;;5092854;28;20020;-77
2021/01/27 09:26:21;;;;;;;32.38;21.65;;;2.90;99.90;;;;;;5091726;28;20024;-77
2021/01/27 09:28:48;;;;;;;30.85;21.92;;;2.90;99.90;;;;;;5092992;28;20099;-78
2021/01/27 09:31:20;;;;;;;34.97;22.55;;;2.80;99.90;;;;;;5080473;28;20035;-77
2021/01/27 09:33:46;;;;;;;30.10;21.55;;;2.80;99.90;;;;;;5072458;28;20033;-77
2021/01/27 09:36:30;;;;;;;29.58;21.90;;;2.80;99.90;;;;;;5092818;28;20058;-77
2021/01/27 09:38:58;;;;;;;30.15;20.77;;;2.70;99.90;;;;;;5091217;28;20020;-76
2021/01/27 09:41:30;;;;;;;33.17;21.38;;;2.70;99.90;;;;;;5093484;28;20031;-76
2021/01/27 09:43:58;;;;;;;33.28;22.58;;;2.70;99.90;;;;;;5093514;28;20115;-76
2021/01/27 09:46:37;;;;;;;38.17;25.33;;;2.70;99.90;;;;;;5093226;28;20024;-76
2021/01/27 09:49:14;;;;;;;45.42;28.23;;;2.70;99.90;;;;;;5093249;28;20020;-76
2021/01/27 09:51:53;;;;;;;44.70;30.10;;;2.60;99.90;;;;;;5091764;28;20047;-76
2021/01/27 09:54:21;;;;;;;59.47;34.28;;;2.60;99.90;;;;;;5093138;28;20012;-76
2021/01/27 09:56:51;;;;;;;68.40;34.78;;;2.60;99.90;;;;;;5093248;28;20016;-76
2021/01/27 09:59:19;;;;;;;60.38;32.83;;;2.60;99.90;;;;;;5093111;28;20099;-77
2021/01/27 10:01:47;;;;;;;43.40;26.90;;;2.60;99.90;;;;;;5092642;28;20095;-77
2021/01/27 10:04:29;;;;;;;45.38;27.05;;;2.60;99.90;;;;;;5092893;28;20028;-76
2021/01/27 10:07:36;;;;;;;52.88;28.83;;;2.60;99.90;;;;;;5093184;28;20574;-77
2021/01/27 10:10:05;;;;;;;42.17;24.58;;;2.60;99.90;;;;;;5048470;28;20393;-77
2021/01/27 10:12:32;;;;;;;43.15;27.35;;;2.60;99.90;;;;;;5092956;28;20109;-77
2021/01/27 10:15:19;;;;;;;44.03;26.48;;;2.60;99.90;;;;;;5092725;28;20398;-76
2021/01/27 10:17:51;;;;;;;41.40;26.38;;;2.70;99.90;;;;;;5091406;28;20367;-77
2021/01/27 10:20:27;;;;;;;30.65;20.75;;;2.70;99.90;;;;;;5092749;28;20020;-76
2021/01/27 10:23:01;;;;;;;33.55;22.20;;;2.70;99.90;;;;;;5092672;28;20581;-76
2021/01/27 10:25:41;;;;;;;31.00;21.63;;;2.70;99.90;;;;;;5092392;28;20073;-76
2021/01/27 10:28:10;;;;;;;35.05;22.83;;;2.60;99.90;;;;;;5092685;28;20024;-77
2021/01/27 10:30:50;;;;;;;34.50;21.63;;;2.70;99.90;;;;;;5092396;28;20478;-77
2021/01/27 10:33:32;;;;;;;37.08;23.05;;;2.70;99.90;;;;;;5092653;28;20020;-77
2021/01/27 10:35:59;;;;;;;35.70;22.73;;;2.80;99.90;;;;;;5091118;28;20035;-76
2021/01/27 10:38:25;;;;;;;41.83;26.88;;;2.90;99.90;;;;;;5092488;28;20356;-76
2021/01/27 10:41:20;;;;;;;38.05;24.40;;;2.90;99.90;;;;;;5092583;28;20024;-77
2021/01/27 10:43:46;;;;;;;35.53;23.17;;;3.00;99.90;;;;;;5091128;28;20028;-77
2021/01/27 10:46:28;;;;;;;36.80;24.83;;;3.00;99.90;;;;;;5092114;28;20035;-77
2021/01/27 10:48:54;;;;;;;48.28;28.80;;;3.10;99.90;;;;;;5092686;28;20481;-78
2021/01/27 10:51:21;;;;;;;33.47;21.83;;;3.10;99.90;;;;;;5091188;28;20028;-78
2021/01/27 10:53:47;;;;;;;35.92;25.10;;;3.10;99.90;;;;;;5092495;28;20024;-77
2021/01/27 10:56:16;;;;;;;37.05;23.35;;;3.20;99.90;;;;;;5091453;28;20119;-79
2021/01/27 10:58:42;;;;;;;36.13;23.65;;;3.30;99.90;;;;;;5092589;28;20029;-78
2021/01/27 11:01:08;;;;;;;40.35;25.52;;;3.30;99.90;;;;;;5092429;28;20035;-78
2021/01/27 11:03:34;;;;;;;42.40;26.30;;;3.30;99.90;;;;;;5092454;28;20074;-78
2021/01/27 11:06:01;;;;;;;26.73;18.25;;;3.30;99.90;;;;;;5091049;28;20027;-78
2021/01/27 11:08:32;;;;;;;43.20;24.23;;;3.20;99.90;;;;;;5091518;28;20106;-78
2021/01/27 11:11:00;;;;;;;37.20;24.25;;;3.20;99.90;;;;;;5092969;28;20051;-79
2021/01/27 11:13:27;;;;;;;48.28;20.70;;;3.10;99.90;;;;;;5092620;28;20024;-79
2021/01/27 11:15:53;;;;;;;28.65;19.92;;;3.10;99.90;;;;;;5092691;28;20039;-79
2021/01/27 11:18:20;;;;;;;35.05;24.30;;;3.10;99.90;;;;;;5092660;28;20076;-79
2021/01/27 11:20:47;;;;;;;30.38;21.58;;;3.10;99.90;;;;;;5092737;28;20024;-79
2021/01/27 11:23:14;;;;;;;29.80;19.33;;;3.20;99.90;;;;;;5092431;28;20489;-78
2021/01/27 11:25:40;;;;;;;29.40;21.23;;;3.20;99.90;;;;;;5091029;28;20036;-78
2021/01/27 11:28:05;;;;;;;32.35;20.80;;;3.30;99.90;;;;;;5092462;28;20043;-78
2021/01/27 11:30:31;;;;;;;35.42;22.10;;;3.30;99.90;;;;;;5092300;28;20079;-78
2021/01/27 11:32:58;;;;;;;35.47;19.08;;;3.40;99.90;;;;;;5092418;28;20020;-78
2021/01/27 11:35:24;;;;;;;30.25;19.55;;;3.40;99.90;;;;;;5092567;28;20458;-79
2021/01/27 11:37:51;;;;;;;32.75;20.00;;;3.30;99.90;;;;;;5091398;28;20032;-79
2021/01/27 11:40:20;;;;;;;23.55;17.25;;;3.30;99.90;;;;;;5090452;28;20044;-78
2021/01/27 11:42:46;;;;;;;23.08;15.68;;;3.30;99.90;;;;;;5092406;28;20031;-79
2021/01/27 11:45:12;;;;;;;34.00;20.95;;;3.20;99.90;;;;;;5092164;28;20101;-79
2021/01/27 11:47:38;;;;;;;30.40;18.85;;;3.20;99.90;;;;;;5092208;28;20016;-78
2021/01/27 11:50:06;;;;;;;27.20;18.80;;;3.20;99.90;;;;;;5090948;28;20485;-78
2021/01/27 11:52:33;;;;;;;56.42;21.85;;;3.20;99.90;;;;;;5090583;28;20081;-78
2021/01/27 11:54:59;;;;;;;35.20;20.33;;;3.20;99.90;;;;;;5090424;28;20398;-76
2021/01/27 11:57:25;;;;;;;30.73;18.13;;;3.20;99.90;;;;;;5092010;28;20359;-78
2021/01/27 11:59:51;;;;;;;35.50;20.63;;;3.20;99.90;;;;;;5096311;28;20105;-80
2021/01/27 12:02:17;;;;;;;37.80;23.83;;;3.10;99.90;;;;;;5094802;28;20067;-78
2021/01/27 12:04:43;;;;;;;34.58;21.13;;;3.10;99.90;;;;;;5095797;28;20387;-78
2021/01/27 12:07:09;;;;;;;41.72;25.75;;;3.20;99.90;;;;;;5095777;28;20028;-78
2021/01/27 12:09:35;;;;;;;40.55;23.10;;;3.10;99.90;;;;;;5094292;28;20031;-78
2021/01/27 12:12:04;;;;;;;40.33;24.83;;;3.10;99.90;;;;;;5095662;28;20051;-78
2021/01/27 12:14:31;;;;;;;147.27;28.88;;;3.20;99.90;;;;;;5093893;28;20044;-79
2021/01/27 12:16:57;;;;;;;90.47;35.85;;;3.20;99.90;;;;;;5095611;28;20474;-80
2021/01/27 12:19:23;;;;;;;56.97;29.27;;;3.20;99.90;;;;;;5095766;28;20043;-79
2021/01/27 12:21:49;;;;;;;35.70;23.00;;;3.20;99.90;;;;;;5095103;28;20451;-79
2021/01/27 12:24:14;;;;;;;38.33;24.67;;;3.20;99.90;;;;;;5095094;28;20069;-79
2021/01/27 12:26:41;;;;;;;47.20;29.17;;;3.20;99.90;;;;;;5095549;28;20063;-79
2021/01/27 12:29:07;;;;;;;44.95;26.40;;;3.20;99.90;;;;;;5094317;28;20081;-79
2021/01/27 12:31:34;;;;;;;28.73;19.10;;;3.20;99.90;;;;;;5095534;28;20470;-79
2021/01/27 12:34:00;;;;;;;27.17;16.73;;;3.20;99.90;;;;;;5095291;28;20461;-79
2021/01/27 12:36:26;;;;;;;39.53;23.08;;;3.20;99.90;;;;;;5094340;28;20115;-78
2021/01/27 12:38:52;;;;;;;59.13;33.15;;;3.20;99.90;;;;;;5095057;28;20094;-79
2021/01/27 12:41:18;;;;;;;111.20;51.78;;;3.30;99.90;;;;;;5094957;28;20082;-79
2021/01/27 12:43:44;;;;;;;171.63;79.78;;;3.30;99.90;;;;;;5091416;28;20024;-79
2021/01/27 12:46:10;;;;;;;133.30;71.43;;;3.30;99.90;;;;;;5094333;28;20024;-79
2021/01/27 12:48:36;;;;;;;119.45;58.58;;;3.30;99.90;;;;;;5095372;28;20089;-79
2021/01/27 12:51:02;;;;;;;70.50;38.80;;;3.30;99.90;;;;;;5095238;28;20437;-78
2021/01/27 12:53:28;;;;;;;53.67;30.70;;;3.20;99.90;;;;;;5095181;28;20435;-79
2021/01/27 12:55:54;;;;;;;81.40;47.22;;;3.10;99.90;;;;;;5094774;28;20118;-78
2021/01/27 12:58:21;;;;;;;104.72;49.83;;;3.00;99.90;;;;;;5093608;28;20028;-79
2021/01/27 13:00:47;;;;;;;80.68;45.78;;;3.10;99.90;;;;;;5095013;28;20031;-79
2021/01/27 13:03:13;;;;;;;63.17;36.83;;;3.10;99.90;;;;;;5093759;28;20427;-79
2021/01/27 13:05:39;;;;;;;61.83;36.45;;;3.00;99.90;;;;;;5094856;28;20059;-79
2021/01/27 13:08:05;;;;;;;53.83;29.02;;;3.10;99.90;;;;;;5093777;28;20063;-79
2021/01/27 13:10:32;;;;;;;76.68;42.28;;;3.10;99.90;;;;;;5093644;28;20017;-79
2021/01/27 13:12:59;;;;;;;68.28;44.00;;;3.20;99.90;;;;;;5093338;28;20020;-79